Архив погоды в Ключах

Метеограмма Ключи
Среда, 15 Августа
Время местн. Темп Ветер Видим Явления Облачность нижн/средн/верх Атм. давл. Влжн Точка росы ВНГО R Сост. почвы Tg s
Напр Скр Прв ур.ст ур.м изм
06:00 - +12.7° В 4 - - - - 763 766 -0.2 85% +10.2° - - - - -
03:00 - +12.9° В 4 - - - - 763 766 +0.2 85% +10.5° - - - - -
00:00 +13.4° В 3 - 4 км дымка облачно 763 766 +1.1 80% +10.1° 600 м - - - -
Вторник, 14 Августа
Время местн. Темп Ветер Видим Явления Облачность нижн/средн/верх Атм. давл. Влжн Точка росы ВНГО R Сост. почвы Tg s
Напр Скр Прв ур.ст ур.м изм
21:00 +14.6° В 3 - 50 км - преимущественно облачно 762 765 +0.2 76% +10.4° 1.5 км 0 - - -
18:00 +17° В 3 - 50 км - преимущественно облачно 762 764 0 64% +10.2° 1.5 км - - - -
15:00 +16.2° В 1 - 20 км - преимущественно облачно 762 764 0 69% +10.6° 1 км - - - -
12:00 +14.7° В,С-В 1 - 4 км дымка {туман} облачно 762 764 -1.3 82% +11.7° 600 м - - - -
09:00 +13.3° В 2 - 2 км дымка {туман} облачно 763 766 +2.3 92% +12° 600 м 6 Влажная (без луж) - -
06:00 +12.4° штиль 0 - 1 км туман, небо видно ясно 761 763 +0.5 89% +10.7° более 2.5 км - - - -
03:00 - +11° штиль 0 - - - - 761 763 +0.2 93% +9.9° - - - - -
00:00 +13.7° З 1 - 20 км небо без изменений {ливневые осадки} преимущественно облачно 760 763 +0.7 89% +12° 1.5 км - - - -
Понедельник, 13 Августа
Время местн. Темп Ветер Видим Явления Облачность нижн/средн/верх Атм. давл. Влжн Точка росы ВНГО R Сост. почвы Tg s
Напр Скр Прв ур.ст ур.м изм
21:00 +15.1° З 3 - 20 км слабый ливневый дождь облачно 759 762 +1.1 98% +14.8° 1 км 2 - - -
18:00 +19.2° В 1 - 50 км небо без изменений {ливневые осадки} преимущественно облачно 758 761 +1.4 61% +11.6° 1.5 км - - - -
15:00 +19.4° - - - 50 км - преимущественно облачно 757 760 -2.6 53% +9.7° 1.5 км - - - -
12:00 +17.4° В 2 - 50 км небо без изменений {туман} преимущественно облачно 760 762 -0.4 67% +11.3° 1.5 км - - - -
09:00 +12.2° В 1 - 1 км туман, небо видно ясно 760 763 +0.4 93% +11.1° более 2.5 км 0 Влажная (без луж) - -
06:00 +9.4° З 2 - 50 км - переменная облачность 760 762 +0.2 93% +8.4° - - - - -
03:00 +9.9° Ю,Ю-В 2 - 20 км - преимущественно облачно 759 762 +0.4 93% +8.8° 1.5 км - - - -
00:00 +12.9° Ю-В 2 - 20 км небо без изменений {ливневые осадки} переменная облачность 759 762 +0.8 90% +11.3° 1.5 км - - - -
Воскресенье, 12 Августа
Время местн. Темп Ветер Видим Явления Облачность нижн/средн/верх Атм. давл. Влжн Точка росы ВНГО R Сост. почвы Tg s
Напр Скр Прв ур.ст ур.м изм
21:00 +16.6° Ю-В 2 - 20 км слабый ливневый дождь преимущественно облачно 758 761 +0.8 85% +14° 1 км 0.3 - - -
18:00 +20.8° В,С-В 2 - 50 км - переменная облачность 757 760 -0.5 47% +9.2° 1.5 км - - - -
15:00 +19.1° С-В 1 - более 50 км - облачно с прояснениями 758 760 -1.1 51% +8.8° 1.5 км - - - -
12:00 - +16.1° С 1 - - - - 759 762 -0.2 70% +10.6° - - - - -
09:00 - +13.6° В,Ю-В 1 - - - - 759 762 +0.6 79% +10° - 0 - - -
06:00 +10.6° З 1 - 50 км - переменная облачность 759 762 +1.2 86% +8.4° 1 км - - - -
03:00 +11.5° З 1 - 50 км - облачно с прояснениями 758 761 +0.3 88% +9.5° 1.5 км - - - -